createdAt,value
2018-07-20T00:00:17.473Z,20.51
2018-07-20T00:01:17.440Z,20.58
2018-07-20T00:02:17.420Z,20.58
2018-07-20T00:03:17.394Z,20.50
2018-07-20T00:04:17.366Z,20.51
2018-07-20T00:05:17.349Z,20.56
2018-07-20T00:06:17.325Z,20.51
2018-07-20T00:07:17.296Z,20.52
2018-07-20T00:08:17.269Z,20.44
2018-07-20T00:09:17.252Z,20.50
2018-07-20T00:10:17.229Z,20.41
2018-07-20T00:11:17.202Z,20.47
2018-07-20T00:12:17.190Z,20.43
2018-07-20T00:13:17.152Z,20.47
2018-07-20T00:14:17.162Z,20.44
2018-07-20T00:15:17.108Z,20.44
2018-07-20T00:16:17.076Z,20.39
2018-07-20T00:17:17.061Z,20.34
2018-07-20T00:18:17.030Z,20.36
2018-07-20T00:19:17.011Z,20.36
2018-07-20T00:20:38.003Z,20.24
2018-07-20T00:21:16.961Z,20.21
2018-07-20T00:22:16.985Z,20.22
2018-07-20T00:23:16.909Z,20.16
2018-07-20T00:24:16.886Z,20.19
2018-07-20T00:25:16.863Z,20.21
2018-07-20T00:26:16.846Z,20.14
2018-07-20T00:27:16.809Z,20.16
2018-07-20T00:28:16.795Z,20.04
2018-07-20T00:29:16.763Z,20.10
2018-07-20T00:30:16.753Z,20.03
2018-07-20T00:31:16.718Z,19.95
2018-07-20T00:32:16.693Z,19.88
2018-07-20T00:33:16.662Z,19.91
2018-07-20T00:34:16.648Z,19.82
2018-07-20T00:35:16.616Z,19.99
2018-07-20T00:36:16.597Z,19.88
2018-07-20T00:37:16.566Z,19.85
2018-07-20T00:38:16.547Z,19.77
2018-07-20T00:39:16.519Z,19.81
2018-07-20T00:40:16.501Z,19.79
2018-07-20T00:41:16.478Z,19.81
2018-07-20T00:42:16.443Z,19.79
2018-07-20T00:43:16.422Z,19.71
2018-07-20T00:44:16.402Z,19.67
2018-07-20T00:45:16.375Z,19.71
2018-07-20T00:46:16.349Z,19.66
2018-07-20T00:47:16.321Z,19.67
2018-07-20T00:48:16.320Z,19.62
2018-07-20T00:49:16.274Z,19.67
2018-07-20T00:50:16.254Z,19.76
2018-07-20T00:51:16.236Z,19.63
2018-07-20T00:52:16.202Z,19.67
2018-07-20T00:53:16.184Z,19.70
2018-07-20T00:54:16.150Z,19.69
2018-07-20T00:55:16.129Z,19.69
2018-07-20T00:56:16.113Z,19.64
2018-07-20T00:57:16.079Z,19.66
2018-07-20T00:58:16.060Z,19.67
2018-07-20T00:59:16.035Z,19.67
2018-07-20T01:00:16.026Z,19.69
2018-07-20T01:01:15.989Z,19.58
2018-07-20T01:02:15.956Z,19.67
2018-07-20T01:03:15.933Z,19.69
2018-07-20T01:04:15.908Z,19.69
2018-07-20T01:05:15.882Z,19.71
2018-07-20T01:06:15.864Z,19.76
2018-07-20T01:07:15.837Z,19.63
2018-07-20T01:08:15.809Z,19.70
2018-07-20T01:09:15.789Z,19.62
2018-07-20T01:10:15.760Z,19.63
2018-07-20T01:11:15.735Z,19.59
2018-07-20T01:12:15.716Z,19.54
2018-07-20T01:13:15.685Z,19.55
2018-07-20T01:14:15.666Z,19.45
2018-07-20T01:15:15.644Z,19.41
2018-07-20T01:16:15.645Z,19.44
2018-07-20T01:17:15.595Z,19.37
2018-07-20T01:18:15.566Z,19.34
2018-07-20T01:19:15.542Z,19.31
2018-07-20T01:20:15.517Z,19.29
2018-07-20T01:21:15.508Z,19.31
2018-07-20T01:22:15.496Z,19.40
2018-07-20T01:23:15.444Z,19.36
2018-07-20T01:24:15.416Z,19.36
2018-07-20T01:25:15.414Z,19.41
2018-07-20T01:26:15.377Z,19.37
2018-07-20T01:27:15.341Z,19.36
2018-07-20T01:28:15.325Z,19.36
2018-07-20T01:29:15.298Z,19.39
2018-07-20T01:30:15.269Z,19.30
2018-07-20T01:31:15.269Z,19.34
2018-07-20T01:32:15.220Z,19.39
2018-07-20T01:33:15.201Z,19.40
2018-07-20T01:34:15.175Z,19.48
2018-07-20T01:35:15.142Z,19.37
2018-07-20T01:36:15.126Z,19.44
2018-07-20T01:37:15.116Z,19.45
2018-07-20T01:38:15.073Z,19.52
2018-07-20T01:39:15.054Z,19.51
2018-07-20T01:40:15.023Z,19.47
2018-07-20T01:41:15.006Z,19.49
2018-07-20T01:42:14.975Z,19.51
2018-07-20T01:43:14.947Z,19.54
2018-07-20T01:44:14.922Z,19.64
2018-07-20T01:45:14.902Z,19.56
2018-07-20T01:46:14.876Z,19.64
2018-07-20T01:47:14.854Z,19.74
2018-07-20T01:48:14.824Z,19.76
2018-07-20T01:49:14.808Z,19.74
2018-07-20T01:50:14.773Z,19.82
2018-07-20T01:51:14.755Z,19.77
2018-07-20T01:52:14.723Z,19.82
2018-07-20T01:53:14.702Z,19.77
2018-07-20T01:54:14.684Z,19.74
2018-07-20T01:55:14.654Z,19.74
2018-07-20T01:56:14.633Z,19.79
2018-07-20T01:57:14.607Z,19.82
2018-07-20T01:58:14.580Z,19.76
2018-07-20T01:59:14.557Z,19.74
2018-07-20T02:00:14.534Z,19.79
2018-07-20T02:01:14.502Z,19.86
2018-07-20T02:02:14.479Z,19.95
2018-07-20T02:03:14.452Z,19.88
2018-07-20T02:04:14.434Z,19.96
2018-07-20T02:05:14.413Z,19.91
2018-07-20T02:06:14.381Z,20.03
2018-07-20T02:07:14.367Z,19.95
2018-07-20T02:08:14.339Z,20.04
2018-07-20T02:09:14.310Z,20.10
2018-07-20T02:10:14.288Z,20.04
2018-07-20T02:11:14.262Z,19.99
2018-07-20T02:12:14.230Z,20.04
2018-07-20T02:13:14.214Z,20.00
2018-07-20T02:14:14.194Z,20.02
2018-07-20T02:15:14.161Z,19.89
2018-07-20T02:16:14.130Z,19.89
2018-07-20T02:17:14.106Z,19.85
2018-07-20T02:18:14.086Z,19.86
2018-07-20T02:19:14.063Z,19.79
2018-07-20T02:20:14.033Z,19.84
2018-07-20T02:21:14.015Z,19.77
2018-07-20T02:22:13.981Z,19.82
2018-07-20T02:23:13.966Z,19.82
2018-07-20T02:24:13.937Z,19.77
2018-07-20T02:25:13.910Z,19.91
2018-07-20T02:26:13.897Z,19.91
2018-07-20T02:27:13.860Z,19.84
2018-07-20T02:28:13.841Z,19.84
2018-07-20T02:29:13.817Z,19.94
2018-07-20T02:30:13.795Z,19.86
2018-07-20T02:31:13.766Z,19.95
2018-07-20T02:32:13.739Z,19.88
2018-07-20T02:33:13.727Z,19.88
2018-07-20T02:34:13.688Z,19.88
2018-07-20T02:35:13.670Z,19.86
2018-07-20T02:36:13.643Z,19.94
2018-07-20T02:37:13.613Z,19.88
2018-07-20T02:38:13.597Z,19.88
2018-07-20T02:39:13.582Z,19.92
2018-07-20T02:40:13.539Z,19.95
2018-07-20T02:41:13.521Z,19.86
2018-07-20T02:42:13.489Z,19.84
2018-07-20T02:43:13.464Z,19.71
2018-07-20T02:44:13.446Z,19.66
2018-07-20T02:45:13.433Z,19.58
2018-07-20T02:46:13.396Z,19.64
2018-07-20T02:47:13.384Z,19.52
2018-07-20T02:48:13.338Z,19.48
2018-07-20T02:49:13.319Z,19.55
2018-07-20T02:50:13.295Z,19.49
2018-07-20T02:51:13.298Z,19.56
2018-07-20T02:52:13.248Z,19.51
2018-07-20T02:53:13.220Z,19.51
2018-07-20T02:54:13.196Z,19.45
2018-07-20T02:55:13.175Z,19.55
2018-07-20T02:56:13.141Z,19.44
2018-07-20T02:57:13.123Z,19.44
2018-07-20T02:58:13.097Z,19.40
2018-07-20T02:59:13.068Z,19.41
2018-07-20T03:00:13.053Z,19.30
2018-07-20T03:01:13.023Z,19.41
2018-07-20T03:02:12.996Z,19.33
2018-07-20T03:03:12.973Z,19.29
2018-07-20T03:04:12.952Z,19.24
2018-07-20T03:05:12.977Z,19.29
2018-07-20T03:06:12.944Z,19.27
2018-07-20T03:07:12.873Z,19.31
2018-07-20T03:08:12.850Z,19.26
2018-07-20T03:09:12.819Z,19.33
2018-07-20T03:10:12.805Z,19.26
2018-07-20T03:11:12.789Z,19.21
2018-07-20T03:12:12.749Z,19.29
2018-07-20T03:13:12.734Z,19.18
2018-07-20T03:14:12.701Z,19.16
2018-07-20T03:15:12.673Z,19.12
2018-07-20T03:16:12.649Z,19.09
2018-07-20T03:17:12.645Z,19.08
2018-07-20T03:18:12.596Z,19.08
2018-07-20T03:19:12.573Z,18.95
2018-07-20T03:20:12.545Z,18.99
2018-07-20T03:21:12.530Z,18.93
2018-07-20T03:22:12.499Z,18.93
2018-07-20T03:23:12.474Z,18.99
2018-07-20T03:24:12.448Z,18.96
2018-07-20T03:25:12.429Z,18.95
2018-07-20T03:26:12.396Z,18.89
2018-07-20T03:27:12.374Z,18.84
2018-07-20T03:28:12.352Z,18.84
2018-07-20T03:29:12.321Z,18.84
2018-07-20T03:30:12.305Z,18.84
2018-07-20T03:31:12.276Z,18.86
2018-07-20T03:32:12.257Z,18.88
2018-07-20T03:33:12.228Z,18.92
2018-07-20T03:34:12.214Z,18.84
2018-07-20T03:35:12.173Z,18.89
2018-07-20T03:36:12.157Z,18.89
2018-07-20T03:37:12.125Z,18.96
2018-07-20T03:38:12.104Z,18.89
2018-07-20T03:39:12.084Z,18.93
2018-07-20T03:40:12.047Z,18.84
2018-07-20T03:41:12.030Z,18.88
2018-07-20T03:42:11.999Z,18.99
2018-07-20T03:43:11.972Z,18.92
2018-07-20T03:44:11.953Z,18.90
2018-07-20T03:45:11.924Z,18.80
2018-07-20T03:46:11.904Z,18.77
2018-07-20T03:47:11.882Z,18.63
2018-07-20T03:48:11.867Z,18.66
2018-07-20T03:49:11.832Z,18.73
2018-07-20T03:50:11.802Z,18.66
2018-07-20T03:51:11.775Z,18.66
2018-07-20T03:52:11.793Z,18.53
2018-07-20T03:53:11.731Z,18.55
2018-07-20T03:54:11.707Z,18.58
2018-07-20T03:55:11.678Z,18.62
2018-07-20T03:56:11.651Z,18.58
2018-07-20T03:57:11.626Z,18.55
2018-07-20T03:58:11.604Z,18.62
2018-07-20T03:59:11.577Z,18.62
2018-07-20T04:00:11.553Z,18.60
2018-07-20T04:01:11.529Z,18.66
2018-07-20T04:02:11.505Z,18.66
2018-07-20T04:03:11.485Z,18.73
2018-07-20T04:04:11.458Z,18.75
2018-07-20T04:05:11.423Z,18.73
2018-07-20T04:06:11.409Z,18.80
2018-07-20T04:07:11.375Z,18.83
2018-07-20T04:08:11.358Z,18.80
2018-07-20T04:09:11.325Z,18.74
2018-07-20T04:10:11.348Z,18.70
2018-07-20T04:11:11.327Z,18.78
2018-07-20T04:12:11.253Z,18.77
2018-07-20T04:13:11.223Z,18.74
2018-07-20T04:14:11.209Z,18.81
2018-07-20T04:15:11.175Z,18.66
2018-07-20T04:16:11.156Z,18.70
2018-07-20T04:17:11.126Z,18.66
2018-07-20T04:18:11.104Z,18.60
2018-07-20T04:19:11.076Z,18.66
2018-07-20T04:20:11.051Z,18.63
2018-07-20T04:21:11.024Z,18.68
2018-07-20T04:22:11.009Z,18.65
2018-07-20T04:23:10.975Z,18.59
2018-07-20T04:24:10.953Z,18.59
2018-07-20T04:25:10.922Z,18.71
2018-07-20T04:26:10.901Z,18.66
2018-07-20T04:27:10.887Z,18.68
2018-07-20T04:28:10.870Z,18.68
2018-07-20T04:29:12.719Z,18.80
2018-07-20T04:30:10.825Z,18.74
2018-07-20T04:31:10.892Z,18.95
2018-07-20T04:32:10.832Z,18.77
2018-07-20T04:33:10.733Z,18.84
2018-07-20T04:34:10.824Z,18.88
2018-07-20T04:35:10.708Z,18.89
2018-07-20T04:36:10.684Z,18.88
2018-07-20T04:37:10.665Z,18.88
2018-07-20T04:38:10.630Z,18.84
2018-07-20T04:39:10.574Z,18.86
2018-07-20T04:40:10.564Z,18.92
2018-07-20T04:41:10.523Z,18.95
2018-07-20T04:42:10.502Z,18.96
2018-07-20T04:43:10.480Z,18.93
2018-07-20T04:44:10.451Z,18.93
2018-07-20T04:45:10.421Z,18.86
2018-07-20T04:46:10.405Z,18.86
2018-07-20T04:47:10.376Z,18.78
2018-07-20T04:48:10.348Z,18.80
2018-07-20T04:49:10.329Z,18.78
2018-07-20T04:50:10.297Z,18.77
2018-07-20T04:51:10.276Z,18.77
2018-07-20T04:52:10.252Z,18.78
2018-07-20T04:53:10.230Z,18.81
2018-07-20T04:54:10.197Z,18.75
2018-07-20T04:55:10.174Z,18.81
2018-07-20T04:56:10.153Z,18.84
2018-07-20T04:57:10.125Z,18.86
2018-07-20T04:58:10.107Z,18.77
2018-07-20T04:59:10.077Z,18.74
2018-07-20T05:00:10.049Z,18.74
2018-07-20T05:01:10.025Z,18.74
2018-07-20T05:02:10.006Z,18.66
2018-07-20T05:03:09.982Z,18.66
2018-07-20T05:04:09.949Z,18.78
2018-07-20T05:05:09.934Z,18.70
2018-07-20T05:06:09.908Z,18.74
2018-07-20T05:07:09.877Z,18.66
2018-07-20T05:08:09.856Z,18.70
2018-07-20T05:09:09.822Z,18.62
2018-07-20T05:10:09.805Z,18.62
2018-07-20T05:11:09.775Z,18.65
2018-07-20T05:12:09.755Z,18.70
2018-07-20T05:13:09.726Z,18.65
2018-07-20T05:14:09.697Z,18.65
2018-07-20T05:15:09.676Z,18.63
2018-07-20T05:16:09.652Z,18.65
2018-07-20T05:17:09.627Z,18.81
2018-07-20T05:18:09.600Z,18.84
2018-07-20T05:19:09.577Z,18.84
2018-07-20T05:20:09.548Z,18.92
2018-07-20T05:21:09.530Z,18.86
2018-07-20T05:22:09.498Z,18.93
2018-07-20T05:23:09.483Z,18.95
2018-07-20T05:24:09.452Z,19.07
2018-07-20T05:25:09.423Z,19.04
2018-07-20T05:26:09.406Z,19.08
2018-07-20T05:27:09.377Z,19.09
2018-07-20T05:28:09.352Z,19.15
2018-07-20T05:29:09.323Z,19.19
2018-07-20T05:30:09.300Z,19.18
2018-07-20T05:31:09.277Z,19.30
2018-07-20T05:32:09.278Z,19.26
2018-07-20T05:33:09.224Z,19.22
2018-07-20T05:34:09.208Z,19.22
2018-07-20T05:35:09.175Z,19.21
2018-07-20T05:36:09.156Z,19.24
2018-07-20T05:37:09.132Z,19.33
2018-07-20T05:38:09.120Z,19.27
2018-07-20T05:39:09.083Z,19.22
2018-07-20T05:40:09.049Z,19.24
2018-07-20T05:41:09.027Z,19.18
2018-07-20T05:42:09.000Z,19.21
2018-07-20T05:43:08.985Z,19.19
2018-07-20T05:44:08.951Z,19.19
2018-07-20T05:45:08.931Z,19.24
2018-07-20T05:46:08.956Z,19.27
2018-07-20T05:47:08.885Z,19.34
2018-07-20T05:48:08.856Z,19.19
2018-07-20T05:49:08.824Z,19.36
2018-07-20T05:50:08.809Z,19.30
2018-07-20T05:51:08.787Z,19.33
2018-07-20T05:52:08.753Z,19.29
2018-07-20T05:53:08.730Z,19.22
2018-07-20T05:54:08.721Z,19.34
2018-07-20T05:55:08.681Z,19.30
2018-07-20T05:56:08.651Z,19.31
2018-07-20T05:57:08.635Z,19.30
2018-07-20T05:58:08.607Z,19.34
2018-07-20T05:59:08.575Z,19.29
2018-07-20T06:00:08.566Z,19.19
2018-07-20T06:01:08.536Z,19.15
2018-07-20T06:02:08.520Z,19.04
2018-07-20T06:03:08.480Z,19.21
2018-07-20T06:04:08.525Z,19.18
2018-07-20T06:05:08.427Z,19.24
2018-07-20T06:06:08.411Z,19.31
2018-07-20T06:07:08.384Z,19.36
2018-07-20T06:08:08.370Z,19.24
2018-07-20T06:09:08.334Z,19.22
2018-07-20T06:10:08.305Z,19.34
2018-07-20T06:11:08.280Z,19.36
2018-07-20T06:12:08.256Z,19.27
2018-07-20T06:13:08.227Z,19.37
2018-07-20T06:14:08.276Z,19.37
2018-07-20T06:15:08.185Z,19.40
2018-07-20T06:16:08.158Z,19.37
2018-07-20T06:17:08.146Z,19.52
2018-07-20T06:18:08.110Z,19.49
2018-07-20T06:19:08.078Z,19.56
2018-07-20T06:20:08.060Z,19.62
2018-07-20T06:21:08.033Z,19.67
2018-07-20T06:22:08.022Z,19.63
2018-07-20T06:23:07.987Z,19.82
2018-07-20T06:24:07.950Z,19.76
2018-07-20T06:25:07.934Z,19.85
2018-07-20T06:26:07.909Z,19.86
2018-07-20T06:27:07.883Z,19.89
2018-07-20T06:28:07.877Z,19.96
2018-07-20T06:29:07.837Z,19.91
2018-07-20T06:30:07.808Z,19.95
2018-07-20T06:31:07.786Z,20.03
2018-07-20T06:32:07.764Z,20.03
2018-07-20T06:33:07.732Z,20.02
2018-07-20T06:34:07.706Z,20.11
2018-07-20T06:35:07.685Z,20.13
2018-07-20T06:36:07.662Z,20.11
2018-07-20T06:37:07.631Z,20.16
2018-07-20T06:38:07.616Z,20.22
2018-07-20T06:39:07.583Z,20.16
2018-07-20T06:40:07.568Z,20.25
2018-07-20T06:41:07.541Z,20.26
2018-07-20T06:42:07.507Z,20.25
2018-07-20T06:43:07.492Z,20.25
2018-07-20T06:44:07.458Z,20.28
2018-07-20T06:45:07.447Z,20.32
2018-07-20T06:46:07.417Z,20.32
2018-07-20T06:47:07.395Z,20.51
2018-07-20T06:48:07.364Z,20.55
2018-07-20T06:49:07.341Z,20.52
2018-07-20T06:50:07.314Z,20.48
2018-07-20T06:51:07.287Z,20.66
2018-07-20T06:52:07.270Z,20.69
2018-07-20T06:53:07.237Z,20.65
2018-07-20T06:54:07.217Z,20.67
2018-07-20T06:55:07.201Z,20.63
2018-07-20T06:56:07.169Z,20.74
2018-07-20T06:57:07.146Z,20.81
2018-07-20T06:58:07.124Z,20.82
2018-07-20T06:59:07.107Z,20.77
2018-07-20T07:00:07.083Z,20.88
2018-07-20T07:01:07.046Z,20.97
2018-07-20T07:02:07.028Z,20.96
2018-07-20T07:03:06.999Z,21.06
2018-07-20T07:04:06.975Z,21.09
2018-07-20T07:05:06.961Z,21.07
2018-07-20T07:06:06.920Z,21.21
2018-07-20T07:07:06.897Z,21.07
2018-07-20T07:08:06.876Z,21.17
2018-07-20T07:09:06.844Z,21.18
2018-07-20T07:10:06.831Z,21.22
2018-07-20T07:11:06.812Z,21.27
2018-07-20T07:12:06.778Z,21.33
2018-07-20T07:13:06.756Z,21.42
2018-07-20T07:14:06.727Z,21.39
2018-07-20T07:15:06.725Z,21.40
2018-07-20T07:16:06.679Z,21.42
2018-07-20T07:17:06.675Z,21.39
2018-07-20T07:18:06.624Z,21.43
2018-07-20T07:19:06.603Z,21.45
2018-07-20T07:20:06.577Z,21.48
2018-07-20T07:21:06.551Z,21.60
2018-07-20T07:22:06.537Z,21.55
2018-07-20T07:23:06.510Z,21.55
2018-07-20T07:24:06.480Z,21.55
2018-07-20T07:25:06.464Z,21.67
2018-07-20T07:26:06.434Z,21.58
2018-07-20T07:27:06.413Z,21.75
2018-07-20T07:28:06.380Z,21.77
2018-07-20T07:29:06.420Z,21.75
2018-07-20T07:30:06.347Z,21.77
2018-07-20T07:31:06.312Z,21.76
2018-07-20T07:32:06.291Z,21.88
2018-07-20T07:33:06.287Z,21.91
2018-07-20T07:34:06.239Z,21.91
2018-07-20T07:35:06.211Z,22.06
2018-07-20T07:36:06.202Z,21.99
2018-07-20T07:37:06.164Z,22.11
2018-07-20T07:38:06.141Z,22.00
2018-07-20T07:39:06.126Z,22.10
2018-07-20T07:40:06.100Z,22.15
2018-07-20T07:41:06.074Z,22.20
2018-07-20T07:42:06.090Z,22.25
2018-07-20T07:43:06.022Z,22.22
2018-07-20T07:44:06.004Z,22.25
2018-07-20T07:45:06.036Z,22.36
2018-07-20T07:46:05.945Z,22.36
2018-07-20T07:47:05.933Z,22.38
2018-07-20T07:48:05.914Z,22.30
2018-07-20T07:49:05.880Z,22.39
2018-07-20T07:50:05.849Z,22.50
2018-07-20T07:51:05.834Z,22.50
2018-07-20T07:52:05.802Z,22.57
2018-07-20T07:53:05.775Z,22.68
2018-07-20T07:54:05.773Z,22.63
2018-07-20T07:55:05.768Z,22.65
2018-07-20T07:56:05.712Z,22.70
2018-07-20T07:57:05.697Z,22.72
2018-07-20T07:58:05.678Z,22.75
2018-07-20T07:59:05.633Z,22.72
2018-07-20T08:00:05.613Z,22.81
2018-07-20T08:01:05.598Z,22.81
2018-07-20T08:02:05.580Z,22.84
2018-07-20T08:03:05.602Z,22.78
2018-07-20T08:04:05.514Z,22.88
2018-07-20T08:05:05.493Z,22.91
2018-07-20T08:06:05.466Z,22.91
2018-07-20T08:07:05.450Z,23.00
2018-07-20T08:08:05.417Z,22.98
2018-07-20T08:09:05.394Z,23.06
2018-07-20T08:10:05.497Z,23.13
2018-07-20T08:11:05.357Z,23.00
2018-07-20T08:12:05.341Z,23.17
2018-07-20T08:13:05.320Z,23.17
2018-07-20T08:14:05.274Z,23.15
2018-07-20T08:15:05.248Z,23.18
2018-07-20T08:16:05.233Z,23.15
2018-07-20T08:17:05.202Z,23.15
2018-07-20T08:18:05.183Z,23.20
2018-07-20T08:19:05.172Z,23.28
2018-07-20T08:20:05.130Z,23.31
2018-07-20T08:21:05.115Z,23.25
2018-07-20T08:22:05.090Z,23.34
2018-07-20T08:23:05.069Z,23.43
2018-07-20T08:24:05.036Z,23.28
2018-07-20T08:25:05.016Z,23.46
2018-07-20T08:26:04.988Z,23.39
2018-07-20T08:27:04.962Z,23.44
2018-07-20T08:28:04.947Z,23.56
2018-07-20T08:29:04.926Z,23.62
2018-07-20T08:30:04.892Z,23.58
2018-07-20T08:31:04.868Z,23.65
2018-07-20T08:32:04.850Z,23.65
2018-07-20T08:33:04.822Z,23.62
2018-07-20T08:34:04.805Z,23.61
2018-07-20T08:35:04.786Z,23.66
2018-07-20T08:36:04.752Z,23.69
2018-07-20T08:37:04.730Z,23.66
2018-07-20T08:38:04.713Z,23.66
2018-07-20T08:39:04.680Z,23.73
2018-07-20T08:40:04.663Z,23.74
2018-07-20T08:41:04.662Z,23.73
2018-07-20T08:42:04.617Z,23.74
2018-07-20T08:43:04.592Z,23.76
2018-07-20T08:44:04.560Z,23.80
2018-07-20T08:45:04.534Z,23.77
2018-07-20T08:46:04.524Z,23.84
2018-07-20T08:47:04.493Z,23.80
2018-07-20T08:48:04.473Z,23.80
2018-07-20T08:49:04.453Z,23.84
2018-07-20T08:50:04.432Z,23.84
2018-07-20T08:51:04.402Z,23.91
2018-07-20T08:52:04.367Z,23.86
2018-07-20T08:53:04.347Z,23.92
2018-07-20T08:54:04.393Z,23.93
2018-07-20T08:55:04.303Z,24.03
2018-07-20T08:56:04.279Z,24.01
2018-07-20T08:57:04.257Z,24.03
2018-07-20T08:58:04.235Z,24.06
2018-07-20T08:59:04.348Z,24.02
2018-07-20T09:00:04.258Z,24.08
2018-07-20T09:01:04.176Z,24.16
2018-07-20T09:02:04.173Z,24.16
2018-07-20T09:03:04.117Z,24.16
2018-07-20T09:04:04.090Z,24.16
2018-07-20T09:05:04.063Z,24.16
2018-07-20T09:06:04.050Z,24.14
2018-07-20T09:07:04.022Z,24.17
2018-07-20T09:08:03.997Z,24.21
2018-07-20T09:09:03.998Z,24.30
2018-07-20T09:10:03.955Z,24.35
2018-07-20T09:11:03.923Z,24.39
2018-07-20T09:12:03.915Z,24.33
2018-07-20T09:13:03.882Z,24.36
2018-07-20T09:14:03.856Z,24.40
2018-07-20T09:15:03.832Z,24.36
2018-07-20T09:16:03.812Z,24.45
2018-07-20T09:17:03.786Z,24.54
2018-07-20T09:18:03.763Z,24.48
2018-07-20T09:19:03.732Z,24.48
2018-07-20T09:20:03.718Z,24.54
2018-07-20T09:21:03.753Z,24.58
2018-07-20T09:22:03.669Z,24.65
2018-07-20T09:23:03.648Z,24.61
2018-07-20T09:24:03.619Z,24.63
2018-07-20T09:25:03.605Z,24.73
2018-07-20T09:26:03.572Z,24.63
2018-07-20T09:27:03.546Z,24.73
2018-07-20T09:28:03.530Z,24.76
2018-07-20T09:29:03.498Z,24.81
2018-07-20T09:30:03.493Z,24.92
2018-07-20T09:31:03.462Z,24.89
2018-07-20T09:32:03.443Z,24.99
2018-07-20T09:33:03.418Z,25.01
2018-07-20T09:34:03.392Z,25.01
2018-07-20T09:35:03.361Z,25.07
2018-07-20T09:36:03.343Z,25.16
2018-07-20T09:37:03.313Z,25.14
2018-07-20T09:38:03.296Z,25.17
2018-07-20T09:39:03.277Z,25.16
2018-07-20T09:40:03.252Z,25.16
2018-07-20T09:41:03.236Z,25.26
2018-07-20T09:42:03.196Z,25.23
2018-07-20T09:43:03.178Z,25.23
2018-07-20T09:44:03.158Z,25.25
2018-07-20T09:45:03.127Z,25.31
2018-07-20T09:46:03.110Z,25.36
2018-07-20T09:47:03.089Z,25.33
2018-07-20T09:48:03.055Z,25.35
2018-07-20T09:49:03.100Z,25.32
2018-07-20T09:50:03.017Z,25.44
2018-07-20T09:51:02.994Z,25.50
2018-07-20T09:52:02.965Z,25.44
2018-07-20T09:53:02.944Z,25.53
2018-07-20T09:54:02.917Z,25.51
2018-07-20T09:55:02.895Z,25.55
2018-07-20T09:56:02.879Z,25.66
2018-07-20T09:57:02.858Z,25.65
2018-07-20T09:58:02.834Z,25.62
2018-07-20T09:59:02.800Z,25.68
2018-07-20T10:00:02.823Z,25.69
2018-07-20T10:01:02.761Z,25.77
2018-07-20T10:02:02.734Z,25.88
2018-07-20T10:03:02.716Z,25.90
2018-07-20T10:04:02.684Z,25.91
2018-07-20T10:05:02.674Z,25.98
2018-07-20T10:06:02.647Z,25.98
2018-07-20T10:07:02.620Z,26.02
2018-07-20T10:08:02.594Z,25.99
2018-07-20T10:09:02.577Z,26.00
2018-07-20T10:10:02.549Z,25.99
2018-07-20T10:11:02.535Z,26.02
2018-07-20T10:12:02.506Z,26.03
2018-07-20T10:13:02.484Z,26.09
2018-07-20T10:14:02.465Z,26.13
2018-07-20T10:15:02.438Z,26.15
2018-07-20T10:16:02.432Z,26.09
2018-07-20T10:17:02.398Z,26.18
2018-07-20T10:18:02.398Z,26.23
2018-07-20T10:19:02.405Z,26.26
2018-07-20T10:20:02.325Z,26.26
2018-07-20T10:21:02.308Z,26.34
2018-07-20T10:22:02.274Z,26.44
2018-07-20T10:23:02.254Z,26.43
2018-07-20T10:24:02.228Z,26.38
2018-07-20T10:25:02.206Z,26.44
2018-07-20T10:26:02.180Z,26.51
2018-07-20T10:27:02.161Z,26.47
2018-07-20T10:28:02.136Z,26.51
2018-07-20T10:29:02.117Z,26.56
2018-07-20T10:30:02.093Z,26.53
2018-07-20T10:31:02.112Z,26.51
2018-07-20T10:32:02.053Z,26.52
2018-07-20T10:33:02.021Z,26.56
2018-07-20T10:34:02.000Z,26.56
2018-07-20T10:35:01.979Z,26.68
2018-07-20T10:36:01.956Z,26.73
2018-07-20T10:37:01.929Z,26.66
2018-07-20T10:38:01.915Z,26.77
2018-07-20T10:39:01.901Z,26.80
2018-07-20T10:40:01.873Z,26.88
2018-07-20T10:41:01.846Z,26.92
2018-07-20T10:42:01.816Z,27.02
2018-07-20T10:43:01.815Z,27.10
2018-07-20T10:44:01.772Z,27.12
2018-07-20T10:45:01.759Z,27.22
2018-07-20T10:46:01.732Z,27.21
2018-07-20T10:47:01.756Z,27.21
2018-07-20T10:48:01.687Z,27.39
2018-07-20T10:49:01.665Z,27.35
2018-07-20T10:50:01.650Z,27.37
2018-07-20T10:51:01.613Z,27.37
2018-07-20T10:52:01.626Z,27.40
2018-07-20T10:53:01.567Z,27.49
2018-07-20T10:54:01.549Z,27.47
2018-07-20T10:55:01.527Z,27.48
2018-07-20T10:56:01.499Z,27.59
2018-07-20T10:57:01.483Z,27.58
2018-07-20T10:58:01.457Z,27.67
2018-07-20T10:59:01.431Z,27.82
2018-07-20T11:00:01.421Z,27.92
2018-07-20T11:01:01.384Z,27.89
2018-07-20T11:02:01.373Z,27.93
2018-07-20T11:03:01.346Z,28.02
2018-07-20T11:04:01.322Z,28.02
2018-07-20T11:05:01.318Z,28.17
2018-07-20T11:06:01.273Z,28.11
2018-07-20T11:07:01.273Z,28.23
2018-07-20T11:08:01.268Z,28.15
2018-07-20T11:09:01.213Z,28.30
2018-07-20T11:10:01.189Z,28.12
2018-07-20T11:11:01.164Z,28.15
2018-07-20T11:12:01.153Z,28.07
2018-07-20T11:13:01.120Z,28.07
2018-07-20T11:14:01.108Z,28.01
2018-07-20T11:15:01.087Z,28.11
2018-07-20T11:16:01.071Z,28.10
2018-07-20T11:17:01.044Z,28.04
2018-07-20T11:18:01.008Z,28.02
2018-07-20T11:19:00.992Z,28.05
2018-07-20T11:20:00.969Z,28.14
2018-07-20T11:21:00.941Z,28.17
2018-07-20T11:22:00.932Z,28.20
2018-07-20T11:23:00.911Z,28.17
2018-07-20T11:24:00.875Z,28.15
2018-07-20T11:25:00.861Z,28.33
2018-07-20T11:26:00.838Z,28.33
2018-07-20T11:27:00.818Z,28.26
2018-07-20T11:28:00.827Z,28.30
2018-07-20T11:29:00.780Z,28.11
2018-07-20T11:30:00.750Z,27.98
2018-07-20T11:31:00.722Z,28.02
2018-07-20T11:32:00.709Z,28.10
2018-07-20T11:33:00.683Z,28.07
2018-07-20T11:34:00.665Z,28.02
2018-07-20T11:35:00.647Z,28.07
2018-07-20T11:36:00.621Z,28.05
2018-07-20T11:37:00.589Z,28.19
2018-07-20T11:38:00.570Z,28.23
2018-07-20T11:39:00.557Z,28.33
2018-07-20T11:40:00.522Z,28.27
2018-07-20T11:41:00.511Z,28.27
2018-07-20T11:42:00.494Z,28.32
2018-07-20T11:43:00.476Z,28.41
2018-07-20T11:44:00.451Z,28.52
2018-07-20T11:45:00.419Z,28.52
2018-07-20T11:46:00.389Z,28.66
2018-07-20T11:47:00.368Z,28.76
2018-07-20T11:48:00.355Z,28.88
2018-07-20T11:49:00.324Z,28.93
2018-07-20T11:50:00.300Z,29.04
2018-07-20T11:51:00.295Z,29.10
2018-07-20T11:52:00.256Z,29.17
2018-07-20T11:53:00.243Z,29.16
2018-07-20T11:54:00.217Z,29.17
2018-07-20T11:55:00.196Z,29.20
2018-07-20T11:56:00.224Z,29.19
2018-07-20T11:57:00.158Z,29.26
2018-07-20T11:58:00.132Z,29.19
2018-07-20T11:59:00.115Z,29.19
2018-07-20T12:00:00.121Z,29.16
2018-07-20T12:01:00.074Z,29.20
2018-07-20T12:02:00.113Z,29.12
2018-07-20T12:03:00.025Z,28.88
2018-07-20T12:04:00.000Z,28.82
2018-07-20T12:04:59.990Z,28.89
2018-07-20T12:05:59.965Z,28.93
2018-07-20T12:06:59.941Z,28.82
2018-07-20T12:07:59.918Z,28.84
2018-07-20T12:08:59.902Z,28.88
2018-07-20T12:09:59.889Z,28.94
2018-07-20T12:10:59.852Z,29.08
2018-07-20T12:11:59.833Z,29.08
2018-07-20T12:12:59.808Z,29.23
2018-07-20T12:13:59.784Z,29.16
2018-07-20T12:14:59.779Z,29.19
2018-07-20T12:15:59.741Z,29.26
2018-07-20T12:16:59.717Z,29.22
2018-07-20T12:17:59.697Z,29.29
2018-07-20T12:18:59.785Z,29.27
2018-07-20T12:19:59.652Z,29.26
2018-07-20T12:20:59.633Z,29.27
2018-07-20T12:21:59.615Z,29.31
2018-07-20T12:22:59.624Z,29.39
2018-07-20T12:23:59.561Z,29.45
2018-07-20T12:24:59.541Z,29.42
2018-07-20T12:25:59.527Z,29.57
2018-07-20T12:26:59.498Z,29.60
2018-07-20T12:27:59.479Z,29.82
2018-07-20T12:28:59.464Z,29.91
2018-07-20T12:29:59.446Z,29.93
2018-07-20T12:30:59.430Z,29.93
2018-07-20T12:31:59.389Z,29.88
2018-07-20T12:32:59.369Z,30.00
2018-07-20T12:33:59.447Z,29.97
2018-07-20T12:34:59.358Z,29.91
2018-07-20T12:35:59.307Z,29.97
2018-07-20T12:36:59.291Z,29.95
2018-07-20T12:37:59.279Z,29.91
2018-07-20T12:38:59.243Z,29.93
2018-07-20T12:39:59.225Z,29.94
2018-07-20T12:40:59.219Z,29.98
2018-07-20T12:41:59.186Z,29.97
2018-07-20T12:42:59.161Z,29.98
2018-07-20T12:43:59.278Z,29.97
2018-07-20T12:44:59.132Z,30.00
2018-07-20T12:45:59.130Z,29.93
2018-07-20T12:46:59.073Z,29.98
2018-07-20T12:47:59.160Z,30.02
2018-07-20T12:48:59.044Z,30.06
2018-07-20T12:49:59.035Z,30.10
2018-07-20T12:50:58.990Z,30.28
2018-07-20T12:51:58.979Z,30.30